Time;durP1;ratioP1;P1;durP2;ratioP2;P2;SDS_P1;SDS_P2;PMS_P1;PMS_P2;Temp;Humidity;BMP_temperature;BMP_pressure;BME280_temperature;BME280_humidity;BME280_pressure;Samples;Min_cycle;Max_cycle;Signal;HPM_P1;HPM_P2
2023/05/17 00:00:48;;;;;;;15.05;5.03;;;9.30;99.90;;;;;;5033826;28;20400;-82
2023/05/17 00:03:13;;;;;;;16.23;5.20;;;9.40;99.90;;;;;;5033592;28;20163;-83
2023/05/17 00:05:39;;;;;;;22.50;5.28;;;9.40;99.90;;;;;;5035323;28;20052;-82
2023/05/17 00:08:05;;;;;;;15.35;3.72;;;9.40;99.90;;;;;;5015860;28;20045;-83
2023/05/17 00:10:30;;;;;;;11.82;3.58;;;9.40;99.90;;;;;;5036261;28;20055;-84
2023/05/17 00:12:56;;;;;;;16.80;3.80;;;9.50;99.90;;;;;;5030510;28;20044;-81
2023/05/17 00:15:22;;;;;;;18.00;3.83;;;9.50;99.90;;;;;;5035163;28;20047;-81
2023/05/17 00:17:48;;;;;;;20.15;3.33;;;9.50;99.90;;;;;;5047537;28;20409;-83
2023/05/17 00:20:13;;;;;;;17.75;3.92;;;9.50;99.90;;;;;;5032843;28;20501;-82
2023/05/17 00:22:39;;;;;;;18.38;3.20;;;9.50;99.90;;;;;;5033438;28;20033;-82
2023/05/17 00:25:06;;;;;;;20.17;3.65;;;9.40;99.90;;;;;;5034328;28;20047;-82
2023/05/17 00:27:32;;;;;;;20.58;4.50;;;9.30;99.90;;;;;;5064453;28;20068;-83
2023/05/17 00:29:57;;;;;;;22.60;4.05;;;9.20;99.90;;;;;;5046468;28;20083;-83
2023/05/17 00:32:23;;;;;;;20.88;3.10;;;9.10;99.90;;;;;;5031960;28;20049;-81
2023/05/17 00:34:49;;;;;;;20.10;3.75;;;9.10;99.90;;;;;;5067071;28;20128;-83
2023/05/17 00:37:15;;;;;;;14.82;2.92;;;9.00;99.90;;;;;;5033145;28;20069;-82
2023/05/17 00:39:40;;;;;;;21.65;3.80;;;8.90;99.90;;;;;;5032865;28;20396;-82
2023/05/17 00:42:06;;;;;;;20.02;3.47;;;8.90;99.90;;;;;;5033463;28;20057;-82
2023/05/17 00:44:32;;;;;;;18.88;3.55;;;8.80;99.90;;;;;;5033319;28;20076;-81
2023/05/17 00:46:58;;;;;;;18.65;3.33;;;8.70;99.90;;;;;;5046854;28;20037;-83
2023/05/17 00:49:25;;;;;;;16.13;3.05;;;8.70;99.90;;;;;;5031902;28;20481;-83
2023/05/17 00:51:52;;;;;;;16.15;3.83;;;8.70;99.90;;;;;;5033737;28;20040;-83
2023/05/17 00:54:18;;;;;;;18.80;3.55;;;8.60;99.90;;;;;;5033289;28;20044;-81
2023/05/17 00:56:44;;;;;;;17.60;3.53;;;8.50;99.90;;;;;;5031251;28;20051;-82
2023/05/17 00:59:12;;;;;;;18.73;3.92;;;8.50;99.90;;;;;;5036443;28;20536;-79
2023/05/17 01:01:41;;;;;;;23.55;3.42;;;8.40;99.90;;;;;;5030540;28;20396;-80
2023/05/17 01:04:08;;;;;;;22.95;3.97;;;8.40;99.90;;;;;;5033976;28;20033;-83
2023/05/17 01:06:35;;;;;;;20.17;3.50;;;8.30;99.90;;;;;;5032682;28;20033;-80
2023/05/17 01:09:01;;;;;;;17.98;3.60;;;8.20;99.90;;;;;;5016361;28;20134;-83
2023/05/17 01:11:36;;;;;;;15.93;3.85;;;8.20;99.90;;;;;;5031255;28;20645;-83
2023/05/17 01:14:52;;;;;;;20.15;3.40;;;8.10;99.90;;;;;;5062270;28;20128;-83
2023/05/17 01:17:44;;;;;;;18.83;4.00;;;8.00;99.90;;;;;;5032043;28;20458;-82
2023/05/17 01:20:36;;;;;;;19.88;3.50;;;8.00;99.90;;;;;;4989309;28;20412;-82
2023/05/17 01:23:39;;;;;;;16.08;2.80;;;7.90;99.90;;;;;;5065026;28;20436;-83
2023/05/17 01:26:23;;;;;;;20.90;3.60;;;7.80;99.90;;;;;;5065437;28;20123;-81
2023/05/17 01:28:53;;;;;;;28.33;3.72;;;7.80;99.90;;;;;;5045411;28;20053;-80
2023/05/17 01:31:19;;;;;;;20.05;4.13;;;7.70;99.90;;;;;;5031785;28;20070;-83
2023/05/17 01:33:46;;;;;;;17.73;4.13;;;7.70;99.90;;;;;;5032262;28;20531;-83
2023/05/17 01:36:11;;;;;;;22.08;3.80;;;7.70;99.90;;;;;;5032797;28;20055;-82
2023/05/17 01:38:37;;;;;;;22.85;3.67;;;7.60;99.90;;;;;;5032204;28;20473;-83
2023/05/17 01:41:18;;;;;;;19.58;3.05;;;7.60;99.90;;;;;;5032638;28;20041;-83
2023/05/17 01:44:06;;;;;;;17.52;3.35;;;7.60;99.90;;;;;;5031361;28;20076;-83
2023/05/17 01:46:40;;;;;;;17.85;3.85;;;7.60;99.90;;;;;;5031056;28;20084;-82
2023/05/17 01:49:17;;;;;;;14.38;2.85;;;7.50;99.90;;;;;;5031227;28;20044;-83
2023/05/17 01:52:02;;;;;;;18.25;3.58;;;7.50;99.90;;;;;;5031314;28;20516;-84
2023/05/17 01:54:35;;;;;;;19.35;3.63;;;7.40;99.90;;;;;;5047024;28;20045;-83
2023/05/17 01:57:06;;;;;;;16.90;3.10;;;7.40;99.90;;;;;;5028743;28;20052;-83
2023/05/17 01:59:33;;;;;;;16.42;3.45;;;7.30;99.90;;;;;;5031290;28;20107;-83
2023/05/17 02:02:05;;;;;;;17.90;3.50;;;7.20;99.90;;;;;;5031068;28;20499;-83
2023/05/17 02:04:31;;;;;;;18.23;3.63;;;7.20;99.90;;;;;;5030566;28;20036;-83
2023/05/17 02:06:56;;;;;;;17.98;3.58;;;7.10;99.90;;;;;;5031430;28;20039;-82
2023/05/17 02:09:22;;;;;;;14.90;3.17;;;7.10;99.90;;;;;;5015470;28;20032;-83
2023/05/17 02:11:48;;;;;;;21.20;3.33;;;7.10;99.90;;;;;;5031427;28;20095;-83
2023/05/17 02:14:14;;;;;;;19.17;3.22;;;7.10;99.90;;;;;;5029244;28;20044;-82
2023/05/17 02:16:40;;;;;;;18.65;4.05;;;7.10;99.90;;;;;;5031853;28;20044;-82
2023/05/17 02:19:07;;;;;;;20.02;3.63;;;7.10;99.90;;;;;;5031395;28;20071;-83
2023/05/17 02:21:34;;;;;;;22.70;4.18;;;7.10;99.90;;;;;;5029060;28;20049;-82
2023/05/17 02:23:59;;;;;;;24.58;4.20;;;7.20;99.90;;;;;;5029205;28;20028;-82
2023/05/17 02:26:26;;;;;;;19.85;3.80;;;7.30;99.90;;;;;;5028864;28;20082;-79
2023/05/17 02:28:52;;;;;;;21.60;3.88;;;7.30;99.90;;;;;;5029968;28;20051;-82
2023/05/17 02:31:18;;;;;;;24.42;3.58;;;7.30;99.90;;;;;;5030531;28;20083;-84
2023/05/17 02:33:44;;;;;;;23.08;3.55;;;7.40;99.90;;;;;;5031318;28;20033;-83
2023/05/17 02:36:10;;;;;;;20.42;3.30;;;7.40;99.90;;;;;;5030878;28;20029;-83
2023/05/17 02:38:35;;;;;;;24.08;4.43;;;7.40;99.90;;;;;;5029221;28;20064;-83
2023/05/17 02:41:02;;;;;;;27.45;3.85;;;7.40;99.90;;;;;;5045582;28;20130;-79
2023/05/17 02:43:29;;;;;;;19.45;3.28;;;7.40;99.90;;;;;;5030788;28;20048;-80
2023/05/17 02:45:55;;;;;;;26.95;3.90;;;7.40;99.90;;;;;;5056549;28;20068;-82
2023/05/17 02:48:21;;;;;;;19.48;3.30;;;7.40;99.90;;;;;;5046316;28;20429;-81
2023/05/17 02:50:46;;;;;;;23.58;4.13;;;7.40;99.90;;;;;;5063741;28;20040;-83
2023/05/17 02:53:12;;;;;;;23.67;3.70;;;7.40;99.90;;;;;;5031794;28;20036;-82
2023/05/17 02:55:38;;;;;;;19.40;3.42;;;7.40;99.90;;;;;;5012748;28;20040;-82
2023/05/17 02:58:03;;;;;;;19.63;3.97;;;7.50;99.90;;;;;;5031961;28;20049;-82
2023/05/17 03:00:29;;;;;;;15.15;2.90;;;7.40;99.90;;;;;;5029348;28;20496;-81
2023/05/17 03:02:55;;;;;;;19.23;3.47;;;7.40;99.90;;;;;;5031246;28;20039;-82
2023/05/17 03:05:20;;;;;;;21.60;3.58;;;7.40;99.90;;;;;;5031292;28;20155;-82
2023/05/17 03:07:46;;;;;;;16.60;3.35;;;7.40;99.90;;;;;;5029862;28;20074;-82
2023/05/17 03:10:12;;;;;;;19.58;3.33;;;7.30;99.90;;;;;;5045292;28;20099;-82
2023/05/17 03:12:38;;;;;;;23.08;3.75;;;7.30;99.90;;;;;;5030658;28;20540;-82
2023/05/17 03:15:04;;;;;;;18.17;3.30;;;7.30;99.90;;;;;;5029141;28;20037;-81
2023/05/17 03:17:30;;;;;;;20.25;3.05;;;7.20;99.90;;;;;;5028879;28;20079;-81
2023/05/17 03:19:56;;;;;;;19.48;3.22;;;7.20;99.90;;;;;;5029968;28;20087;-80
2023/05/17 03:22:21;;;;;;;16.88;2.60;;;7.10;99.90;;;;;;5029331;28;20068;-80
2023/05/17 03:24:47;;;;;;;17.38;2.60;;;7.00;99.90;;;;;;5032295;28;20405;-80
2023/05/17 03:27:13;;;;;;;22.75;3.78;;;7.00;99.90;;;;;;5034039;28;20120;-82
2023/05/17 03:29:39;;;;;;;19.33;3.53;;;7.00;99.90;;;;;;5031661;28;20551;-81
2023/05/17 03:32:05;;;;;;;15.85;3.15;;;7.00;99.90;;;;;;5043020;28;20052;-77
2023/05/17 03:34:31;;;;;;;18.48;3.97;;;7.00;99.90;;;;;;5031595;28;20513;-82
2023/05/17 03:36:57;;;;;;;15.77;3.33;;;7.00;99.90;;;;;;5032604;28;20052;-81
2023/05/17 03:39:23;;;;;;;22.88;3.08;;;7.00;99.90;;;;;;5028203;28;20438;-82
2023/05/17 03:41:49;;;;;;;17.75;3.25;;;7.10;99.90;;;;;;5063888;28;20540;-83
2023/05/17 03:44:15;;;;;;;17.13;2.60;;;7.10;99.90;;;;;;5050356;28;20420;-82
2023/05/17 03:46:41;;;;;;;20.25;2.90;;;7.20;99.90;;;;;;5048235;28;20037;-82
2023/05/17 03:49:06;;;;;;;15.32;3.35;;;7.20;99.90;;;;;;5035310;28;20029;-82
2023/05/17 03:51:32;;;;;;;21.23;3.50;;;7.30;99.90;;;;;;5051063;28;20531;-80
2023/05/17 03:53:59;;;;;;;15.52;2.78;;;7.20;99.90;;;;;;5034579;28;20416;-81
2023/05/17 03:56:25;;;;;;;17.67;2.92;;;7.30;99.90;;;;;;5034051;28;20041;-82
2023/05/17 03:58:51;;;;;;;16.27;2.80;;;7.40;99.90;;;;;;5034952;28;20077;-82
2023/05/17 04:01:19;;;;;;;14.50;3.25;;;7.40;99.90;;;;;;5032773;28;20494;-82
2023/05/17 04:03:45;;;;;;;19.45;2.85;;;7.40;99.90;;;;;;5030526;28;20159;-82
2023/05/17 04:06:12;;;;;;;16.70;2.58;;;7.40;99.90;;;;;;5068135;28;20041;-80
2023/05/17 04:08:38;;;;;;;16.67;3.03;;;7.40;99.90;;;;;;5033210;28;20083;-82
2023/05/17 04:11:12;;;;;;;14.73;2.88;;;7.40;99.90;;;;;;5032378;28;20057;-82
2023/05/17 04:13:41;;;;;;;15.45;2.17;;;7.40;99.90;;;;;;5032872;28;20032;-82
2023/05/17 04:16:10;;;;;;;15.25;2.67;;;7.40;99.90;;;;;;5065886;28;20127;-82
2023/05/17 04:18:36;;;;;;;16.40;2.63;;;7.30;99.90;;;;;;5033793;28;20041;-82
2023/05/17 04:21:03;;;;;;;14.43;2.00;;;7.30;99.90;;;;;;5032255;28;20053;-81
2023/05/17 04:23:30;;;;;;;12.82;2.38;;;7.30;99.90;;;;;;5034487;28;20048;-81
2023/05/17 04:25:56;;;;;;;12.02;2.10;;;7.30;99.90;;;;;;5034484;28;20060;-82
2023/05/17 04:28:23;;;;;;;19.42;2.47;;;7.30;99.90;;;;;;5033816;28;20056;-82
2023/05/17 04:30:48;;;;;;;13.02;2.28;;;7.30;99.90;;;;;;5033826;28;20048;-82
2023/05/17 04:33:14;;;;;;;17.05;2.72;;;7.40;99.90;;;;;;5033074;28;20056;-80
2023/05/17 04:35:41;;;;;;;14.60;2.08;;;7.40;99.90;;;;;;5032244;28;20037;-81
2023/05/17 04:38:07;;;;;;;12.57;2.60;;;7.50;99.90;;;;;;5029591;28;20052;-82
2023/05/17 04:40:33;;;;;;;12.45;2.15;;;7.60;99.90;;;;;;5048430;28;20322;-82
2023/05/17 04:42:59;;;;;;;14.45;2.40;;;7.60;99.90;;;;;;5033416;28;20056;-82
2023/05/17 04:45:25;;;;;;;16.20;2.53;;;7.70;99.90;;;;;;5047462;28;20527;-82
2023/05/17 04:47:51;;;;;;;12.50;2.42;;;7.70;99.90;;;;;;5033229;28;21213;-82
2023/05/17 04:50:17;;;;;;;20.27;2.10;;;7.80;99.90;;;;;;5033080;28;20049;-82
2023/05/17 04:52:44;;;;;;;14.27;2.15;;;7.80;99.90;;;;;;5033498;28;20420;-82
2023/05/17 04:55:10;;;;;;;10.82;2.17;;;7.90;99.90;;;;;;5033447;28;20045;-81
2023/05/17 04:57:36;;;;;;;12.50;1.80;;;8.00;99.90;;;;;;5033125;28;20060;-83
2023/05/17 05:00:08;;;;;;;12.27;1.80;;;8.00;99.90;;;;;;5033189;28;20041;-82
2023/05/17 05:02:34;;;;;;;13.52;2.40;;;8.10;99.90;;;;;;5032176;28;20044;-81
2023/05/17 05:05:00;;;;;;;13.82;1.95;;;8.20;99.90;;;;;;5032273;28;20515;-74
2023/05/17 05:07:26;;;;;;;13.30;2.00;;;8.20;99.90;;;;;;5031565;28;20037;-75
2023/05/17 05:09:52;;;;;;;10.90;2.13;;;8.30;99.90;;;;;;5016573;28;20552;-74
2023/05/17 05:12:18;;;;;;;15.90;3.42;;;8.30;99.90;;;;;;5032736;28;20041;-75
2023/05/17 05:14:44;;;;;;;14.43;2.20;;;8.40;99.90;;;;;;5031407;28;20048;-75
2023/05/17 05:17:09;;;;;;;12.48;2.00;;;8.40;99.90;;;;;;5034313;28;20041;-75
2023/05/17 05:19:35;;;;;;;10.57;1.77;;;8.60;99.90;;;;;;5029601;28;20041;-74
2023/05/17 05:22:01;;;;;;;11.05;2.00;;;8.60;99.90;;;;;;5032433;28;20048;-74
2023/05/17 05:24:27;;;;;;;11.02;2.33;;;8.80;99.90;;;;;;5032830;28;20037;-74
2023/05/17 05:26:52;;;;;;;12.00;2.40;;;8.80;99.90;;;;;;5032475;28;20040;-74
2023/05/17 05:29:18;;;;;;;10.63;1.70;;;8.90;99.90;;;;;;5033017;28;20032;-75
2023/05/17 05:31:45;;;;;;;14.07;2.58;;;9.00;99.90;;;;;;5030803;28;20458;-75
2023/05/17 05:34:11;;;;;;;11.43;2.38;;;9.00;99.90;;;;;;5033124;28;20481;-75
2023/05/17 05:36:36;;;;;;;12.13;1.77;;;9.00;99.90;;;;;;5061093;28;20051;-75
2023/05/17 05:39:02;;;;;;;10.73;2.00;;;9.10;99.90;;;;;;5032498;28;20120;-75
2023/05/17 05:41:28;;;;;;;15.35;2.22;;;9.20;99.90;;;;;;5030128;28;20041;-75
2023/05/17 05:43:54;;;;;;;8.85;1.65;;;9.30;99.90;;;;;;5030463;28;20049;-75
2023/05/17 05:46:20;;;;;;;11.75;1.80;;;9.40;99.90;;;;;;5032579;28;20044;-75
2023/05/17 05:48:45;;;;;;;9.82;1.20;;;9.60;99.90;;;;;;5030969;28;20037;-75
2023/05/17 05:51:11;;;;;;;6.35;1.30;;;9.60;99.90;;;;;;5062112;28;20048;-75
2023/05/17 05:53:40;;;;;;;10.02;1.70;;;9.70;99.90;;;;;;5030542;28;20075;-74
2023/05/17 05:56:06;;;;;;;9.48;2.72;;;9.80;99.90;;;;;;5029096;28;20081;-75
2023/05/17 05:58:31;;;;;;;12.05;1.60;;;9.80;99.90;;;;;;5031049;28;20044;-74
2023/05/17 06:00:58;;;;;;;10.32;1.73;;;9.80;99.90;;;;;;5029713;28;20086;-75
2023/05/17 06:03:24;;;;;;;6.50;1.15;;;9.80;99.90;;;;;;5028947;28;20033;-75
2023/05/17 06:05:50;;;;;;;12.52;1.80;;;10.00;99.90;;;;;;5028326;28;20056;-75
2023/05/17 06:08:16;;;;;;;12.27;1.25;;;10.10;99.90;;;;;;5031249;28;20040;-75
2023/05/17 06:10:42;;;;;;;9.88;1.40;;;10.20;99.90;;;;;;5031517;28;20509;-75
2023/05/17 06:13:10;;;;;;;8.27;1.25;;;10.30;99.90;;;;;;5014794;28;20507;-74
2023/05/17 06:15:36;;;;;;;7.10;1.00;;;10.30;99.90;;;;;;5016024;28;20033;-74
2023/05/17 06:18:02;;;;;;;7.90;1.25;;;10.20;99.90;;;;;;5031277;28;20498;-74
2023/05/17 06:20:27;;;;;;;7.97;1.15;;;10.10;99.90;;;;;;5062462;28;20037;-74
2023/05/17 06:22:53;;;;;;;7.28;0.90;;;10.10;99.90;;;;;;5030813;28;20056;-74
2023/05/17 06:25:19;;;;;;;8.77;1.20;;;10.20;99.90;;;;;;5029825;28;20045;-74
2023/05/17 06:27:45;;;;;;;9.27;1.38;;;10.30;99.90;;;;;;5030881;28;20520;-75
2023/05/17 06:30:11;;;;;;;7.65;1.38;;;10.40;99.90;;;;;;5064095;28;20041;-74
2023/05/17 06:32:37;;;;;;;9.10;1.17;;;10.50;99.90;;;;;;5028410;28;20064;-75
2023/05/17 06:35:03;;;;;;;10.13;1.75;;;10.60;99.90;;;;;;5028990;28;20041;-74
2023/05/17 06:37:29;;;;;;;8.50;1.27;;;10.50;99.90;;;;;;5060393;28;20067;-74
2023/05/17 06:40:05;;;;;;;8.05;1.55;;;10.70;99.90;;;;;;5031669;28;20045;-74
2023/05/17 06:42:31;;;;;;;8.90;1.50;;;10.80;99.90;;;;;;5063373;28;20041;-73
2023/05/17 06:44:57;;;;;;;13.32;1.45;;;10.90;99.90;;;;;;5031289;28;20084;-74
2023/05/17 06:47:23;;;;;;;12.75;1.80;;;11.10;99.90;;;;;;5029317;28;20080;-74
2023/05/17 06:49:49;;;;;;;7.13;1.30;;;11.20;99.90;;;;;;5030384;28;20037;-74
2023/05/17 06:52:15;;;;;;;10.48;1.92;;;11.30;99.90;;;;;;5025048;28;20045;-74
2023/05/17 06:54:41;;;;;;;10.20;1.50;;;11.30;99.90;;;;;;5031401;28;20088;-74
2023/05/17 06:57:06;;;;;;;9.20;1.63;;;11.40;99.90;;;;;;5047730;28;20503;-74
2023/05/17 06:59:32;;;;;;;8.18;1.83;;;11.50;99.90;;;;;;5046207;28;20116;-74
2023/05/17 07:01:59;;;;;;;10.40;1.92;;;11.60;99.90;;;;;;5060674;28;20575;-74
2023/05/17 07:04:25;;;;;;;12.93;1.98;;;11.60;99.90;;;;;;5014122;28;20512;-74
2023/05/17 07:06:51;;;;;;;8.02;1.50;;;11.40;99.90;;;;;;5031688;28;20139;-74
2023/05/17 07:09:19;;;;;;;12.68;2.05;;;11.40;99.90;;;;;;5031241;28;20124;-74
2023/05/17 07:11:45;;;;;;;9.60;2.38;;;11.40;99.90;;;;;;5031923;28;20047;-74
2023/05/17 07:14:10;;;;;;;15.65;2.17;;;11.40;99.90;;;;;;5028536;28;20045;-74
2023/05/17 07:16:36;;;;;;;11.82;2.47;;;11.60;99.90;;;;;;5047222;28;20037;-74
2023/05/17 07:19:02;;;;;;;8.85;2.33;;;11.70;99.90;;;;;;5029187;28;20401;-76
2023/05/17 07:21:28;;;;;;;13.27;2.05;;;11.60;99.90;;;;;;5030282;28;20107;-76
2023/05/17 07:23:54;;;;;;;9.02;1.98;;;11.60;99.80;;;;;;5015048;28;20041;-78
2023/05/17 07:26:20;;;;;;;12.02;2.10;;;11.40;99.10;;;;;;5030487;28;20036;-75
2023/05/17 07:28:46;;;;;;;12.80;1.88;;;11.50;98.70;;;;;;5030848;28;20041;-78
2023/05/17 07:31:11;;;;;;;13.13;2.65;;;11.80;99.40;;;;;;5062895;28;20087;-78
2023/05/17 07:33:38;;;;;;;12.88;2.13;;;12.10;99.50;;;;;;5044225;28;20453;-78
2023/05/17 07:36:05;;;;;;;10.23;1.48;;;12.30;98.00;;;;;;5014785;28;20041;-75
2023/05/17 07:38:31;;;;;;;7.35;1.85;;;12.40;97.20;;;;;;5031038;28;20041;-75
2023/05/17 07:40:56;;;;;;;13.20;2.00;;;12.20;95.90;;;;;;5012144;28;20102;-75
2023/05/17 07:43:23;;;;;;;8.95;1.50;;;12.00;96.70;;;;;;5022654;28;20057;-75
2023/05/17 07:45:49;;;;;;;9.05;1.55;;;11.90;97.30;;;;;;5029633;28;20106;-75
2023/05/17 07:48:14;;;;;;;9.07;1.75;;;11.70;97.10;;;;;;5060365;28;20064;-75
2023/05/17 07:50:41;;;;;;;10.02;1.63;;;11.70;98.80;;;;;;5029571;28;20508;-78
2023/05/17 07:53:06;;;;;;;10.65;1.60;;;11.70;97.50;;;;;;5013193;28;20542;-76
2023/05/17 07:55:32;;;;;;;9.90;1.60;;;11.60;96.70;;;;;;5026351;28;20041;-75
2023/05/17 07:57:58;;;;;;;8.93;1.35;;;11.70;94.80;;;;;;5027316;28;20033;-77
2023/05/17 08:00:24;;;;;;;9.25;1.63;;;11.70;95.70;;;;;;5045456;28;20200;-77
2023/05/17 08:02:50;;;;;;;8.18;1.55;;;12.00;95.50;;;;;;5027910;28;20487;-76
2023/05/17 08:05:16;;;;;;;10.77;3.90;;;12.30;96.50;;;;;;5063160;28;20390;-77
2023/05/17 08:07:41;;;;;;;8.93;1.67;;;12.80;95.60;;;;;;5029697;28;20124;-77
2023/05/17 08:10:08;;;;;;;8.65;1.77;;;13.20;94.80;;;;;;5030268;28;20056;-77
2023/05/17 08:12:33;;;;;;;11.18;1.88;;;13.30;94.30;;;;;;5033125;28;20045;-78
2023/05/17 08:14:59;;;;;;;10.35;1.75;;;13.10;93.50;;;;;;5048632;28;20041;-78
2023/05/17 08:17:25;;;;;;;11.50;1.75;;;12.90;94.00;;;;;;5033221;28;20128;-76
2023/05/17 08:19:50;;;;;;;10.23;2.10;;;13.00;93.80;;;;;;5034060;28;20539;-78
2023/05/17 08:22:16;;;;;;;9.23;1.88;;;13.20;94.50;;;;;;5048539;28;20098;-78
2023/05/17 08:24:45;;;;;;;10.50;1.90;;;13.50;94.50;;;;;;5051000;28;20111;-77
2023/05/17 08:27:10;;;;;;;13.05;2.28;;;13.50;93.30;;;;;;5013818;28;20477;-78
2023/05/17 08:29:36;;;;;;;14.05;2.35;;;13.20;92.90;;;;;;5032163;28;20079;-78
2023/05/17 08:32:03;;;;;;;8.63;1.77;;;13.00;93.60;;;;;;5031345;28;20079;-78
2023/05/17 08:34:28;;;;;;;11.02;1.77;;;12.70;93.70;;;;;;5034679;28;20378;-77
2023/05/17 08:36:54;;;;;;;7.38;1.80;;;12.60;94.30;;;;;;5033536;28;20043;-78
2023/05/17 08:39:20;;;;;;;10.93;2.28;;;12.60;94.60;;;;;;5068088;28;20056;-77
2023/05/17 08:41:47;;;;;;;10.77;1.70;;;12.60;93.40;;;;;;5050226;28;20053;-77
2023/05/17 08:44:15;;;;;;;7.72;1.80;;;12.60;91.60;;;;;;5034014;28;20053;-76
2023/05/17 08:46:43;;;;;;;7.93;1.40;;;12.40;91.60;;;;;;5032164;28;20119;-78
2023/05/17 08:49:11;;;;;;;9.02;1.60;;;12.40;91.80;;;;;;5020528;28;20454;-78
2023/05/17 08:51:41;;;;;;;8.15;1.40;;;12.70;93.00;;;;;;5017336;28;20045;-79
2023/05/17 08:54:07;;;;;;;11.13;2.42;;;13.50;93.40;;;;;;5014485;28;20037;-78
2023/05/17 08:56:38;;;;;;;11.38;5.05;;;14.30;92.30;;;;;;5066967;28;20073;-78
2023/05/17 08:59:07;;;;;;;13.30;5.68;;;14.40;91.10;;;;;;5023883;28;20128;-78
2023/05/17 09:01:33;;;;;;;9.98;2.10;;;14.20;88.90;;;;;;5065842;28;20041;-79
2023/05/17 09:03:59;;;;;;;10.65;1.90;;;14.50;88.80;;;;;;5016747;28;20080;-79
2023/05/17 09:06:25;;;;;;;10.70;1.83;;;15.00;89.10;;;;;;5050100;28;20040;-79
2023/05/17 09:08:52;;;;;;;8.27;1.77;;;15.40;86.30;;;;;;5033761;28;20048;-79
2023/05/17 09:11:29;;;;;;;10.70;1.90;;;15.40;82.70;;;;;;5016974;28;20060;-78
2023/05/17 09:14:05;;;;;;;8.02;1.77;;;15.10;79.50;;;;;;5032160;28;20175;-78
2023/05/17 09:16:34;;;;;;;8.48;1.60;;;14.60;81.80;;;;;;5047251;28;20120;-78
2023/05/17 09:19:00;;;;;;;8.07;1.92;;;14.20;80.00;;;;;;5033289;28;20045;-77
2023/05/17 09:21:28;;;;;;;9.68;1.70;;;13.90;82.50;;;;;;5031992;28;20040;-78
2023/05/17 09:23:54;;;;;;;10.07;1.77;;;13.70;81.40;;;;;;5030455;28;20036;-77
2023/05/17 09:26:21;;;;;;;6.38;1.77;;;13.60;83.10;;;;;;5066010;28;20369;-78
2023/05/17 09:28:47;;;;;;;9.90;1.80;;;13.80;84.40;;;;;;5032130;28;20033;-77
2023/05/17 09:31:15;;;;;;;13.82;2.20;;;14.20;84.00;;;;;;5031013;28;20052;-79
2023/05/17 09:33:48;;;;;;;9.80;1.77;;;14.80;84.90;;;;;;5065762;28;20534;-79
2023/05/17 09:36:21;;;;;;;11.10;1.92;;;15.10;82.00;;;;;;5033235;28;20427;-79
2023/05/17 09:38:58;;;;;;;10.65;1.95;;;14.90;80.20;;;;;;5032779;28;20409;-79
2023/05/17 09:41:40;;;;;;;10.63;2.20;;;14.50;81.30;;;;;;5031079;28;20186;-78
2023/05/17 09:44:08;;;;;;;11.20;2.10;;;14.30;83.70;;;;;;5063725;28;20049;-78
2023/05/17 09:46:35;;;;;;;10.05;2.00;;;14.20;84.40;;;;;;5031982;28;20049;-79
2023/05/17 09:49:02;;;;;;;12.48;2.30;;;14.50;82.10;;;;;;5049323;28;20516;-77
2023/05/17 09:51:32;;;;;;;15.23;3.05;;;14.50;82.20;;;;;;5047952;28;20083;-79
2023/05/17 09:53:59;;;;;;;10.88;1.90;;;14.50;81.30;;;;;;5015542;28;20045;-77
2023/05/17 09:56:31;;;;;;;9.70;2.08;;;14.70;84.30;;;;;;5029957;28;20045;-79
2023/05/17 09:59:01;;;;;;;12.32;2.35;;;14.80;81.20;;;;;;5047216;28;20086;-79
2023/05/17 10:01:28;;;;;;;11.23;2.08;;;14.40;80.60;;;;;;5030681;28;20137;-79
2023/05/17 10:03:58;;;;;;;8.75;1.83;;;14.10;82.30;;;;;;5028449;28;20037;-78
2023/05/17 10:06:26;;;;;;;11.80;1.90;;;13.90;83.60;;;;;;5064238;28;20115;-78
2023/05/17 10:08:55;;;;;;;15.32;2.47;;;13.80;85.60;;;;;;5030161;28;20186;-78
2023/05/17 10:11:26;;;;;;;11.70;1.75;;;13.60;86.80;;;;;;5027436;28;20047;-78
2023/05/17 10:14:04;;;;;;;13.88;2.03;;;13.50;86.20;;;;;;5059763;28;20044;-79
2023/05/17 10:16:33;;;;;;;11.55;1.80;;;13.40;87.90;;;;;;5030297;28;20115;-79
2023/05/17 10:19:01;;;;;;;10.05;1.80;;;13.40;86.20;;;;;;5062848;28;20041;-79
2023/05/17 10:21:28;;;;;;;9.88;1.67;;;13.40;86.00;;;;;;5030884;28;20051;-79
2023/05/17 10:23:55;;;;;;;7.60;1.75;;;13.50;84.90;;;;;;5030328;28;20447;-79
2023/05/17 10:26:22;;;;;;;12.48;2.40;;;13.90;85.10;;;;;;5032253;28;20123;-80
2023/05/17 10:28:52;;;;;;;10.82;1.90;;;14.20;84.50;;;;;;5031719;28;20044;-79
2023/05/17 10:31:19;;;;;;;8.70;1.77;;;14.40;84.00;;;;;;5064583;28;20045;-79
2023/05/17 10:33:48;;;;;;;11.32;2.05;;;14.30;81.50;;;;;;5012994;28;20104;-78
2023/05/17 10:36:16;;;;;;;11.13;1.65;;;13.90;80.30;;;;;;5030187;28;20045;-79
2023/05/17 10:38:42;;;;;;;7.57;1.70;;;13.60;80.90;;;;;;5015321;28;20202;-79
2023/05/17 10:41:10;;;;;;;7.47;1.80;;;13.90;81.40;;;;;;5031672;28;20194;-80
2023/05/17 10:43:37;;;;;;;7.53;1.40;;;14.10;78.50;;;;;;5061335;28;20560;-80
2023/05/17 10:46:10;;;;;;;6.03;1.48;;;14.50;80.70;;;;;;5033086;28;20041;-80
2023/05/17 10:48:38;;;;;;;8.75;1.73;;;15.10;80.70;;;;;;5004142;28;20037;-80
2023/05/17 10:51:06;;;;;;;4.90;1.13;;;15.30;77.60;;;;;;5029645;28;20056;-79
2023/05/17 10:53:32;;;;;;;7.40;1.83;;;15.00;75.80;;;;;;5028017;28;20557;-80
2023/05/17 10:55:57;;;;;;;5.82;1.42;;;14.80;76.90;;;;;;5063404;28;20063;-79
2023/05/17 10:58:26;;;;;;;6.88;1.38;;;14.40;76.80;;;;;;5031534;28;20070;-79
2023/05/17 11:00:53;;;;;;;8.38;1.73;;;14.30;77.30;;;;;;5063137;28;20052;-79
2023/05/17 11:03:21;;;;;;;8.90;1.67;;;14.60;78.50;;;;;;5027998;28;20083;-79
2023/05/17 11:06:08;;;;;;;9.50;1.48;;;15.20;78.40;;;;;;5015311;28;20128;-79
2023/05/17 11:08:35;;;;;;;4.88;1.10;;;15.50;78.10;;;;;;5048116;28;20472;-79
2023/05/17 11:11:17;;;;;;;7.07;1.48;;;15.80;73.40;;;;;;5029149;28;20499;-80
2023/05/17 11:13:51;;;;;;;6.93;1.20;;;16.00;72.00;;;;;;5064131;28;20123;-79
2023/05/17 11:16:20;;;;;;;6.38;1.70;;;16.10;71.00;;;;;;5015577;28;20144;-79
2023/05/17 11:18:51;;;;;;;9.35;1.83;;;16.00;68.60;;;;;;5064056;28;20163;-78
2023/05/17 11:21:18;;;;;;;5.15;1.20;;;15.70;70.00;;;;;;5030703;28;20575;-79
2023/05/17 11:23:45;;;;;;;7.00;1.30;;;15.50;69.50;;;;;;5015042;28;20083;-78
2023/05/17 11:26:26;;;;;;;7.18;1.88;;;15.40;69.90;;;;;;5064734;28;20037;-79
2023/05/17 11:29:00;;;;;;;9.05;1.65;;;15.50;70.40;;;;;;5027921;28;20040;-78
2023/05/17 11:31:34;;;;;;;5.63;1.10;;;15.90;68.60;;;;;;5032542;28;20045;-79
2023/05/17 11:34:02;;;;;;;6.80;1.38;;;16.10;65.70;;;;;;5030663;28;20044;-79
2023/05/17 11:36:28;;;;;;;8.65;1.20;;;15.90;65.60;;;;;;5030131;28;20404;-79
2023/05/17 11:39:16;;;;;;;5.50;1.20;;;15.90;65.90;;;;;;5052101;28;20120;-80
2023/05/17 11:41:52;;;;;;;9.35;1.55;;;16.10;68.40;;;;;;5030907;28;20076;-78
2023/05/17 11:44:31;;;;;;;7.30;1.40;;;16.30;68.50;;;;;;5029880;28;20045;-79
2023/05/17 11:47:05;;;;;;;7.43;1.40;;;15.70;64.30;;;;;;5033944;28;20043;-78
2023/05/17 11:49:33;;;;;;;9.70;1.75;;;15.80;69.20;;;;;;5034923;28;20044;-79
2023/05/17 11:51:59;;;;;;;7.50;2.03;;;16.20;68.40;;;;;;5068015;28;20041;-79
2023/05/17 11:54:25;;;;;;;5.75;1.27;;;16.60;66.60;;;;;;5034838;28;20041;-78
2023/05/17 11:56:54;;;;;;;5.50;1.33;;;16.30;64.20;;;;;;5034334;28;20063;-78
2023/05/17 11:59:21;;;;;;;6.68;1.33;;;15.80;62.90;;;;;;5031368;28;20076;-79
2023/05/17 12:01:48;;;;;;;8.73;1.45;;;15.90;65.10;;;;;;5033564;28;20048;-79
2023/05/17 12:04:26;;;;;;;6.80;1.40;;;16.10;65.00;;;;;;5066851;28;20052;-77
2023/05/17 12:06:53;;;;;;;7.10;1.35;;;16.20;64.20;;;;;;5017857;28;20021;-79
2023/05/17 12:09:20;;;;;;;6.65;1.50;;;16.00;63.20;;;;;;5034153;28;20132;-79
2023/05/17 12:11:46;;;;;;;10.27;1.92;;;16.00;64.80;;;;;;5033770;28;20040;-79
2023/05/17 12:14:21;;;;;;;7.97;1.40;;;15.80;65.90;;;;;;5019030;28;20127;-78
2023/05/17 12:16:51;;;;;;;7.00;1.30;;;15.60;65.00;;;;;;5033196;28;20068;-78
2023/05/17 12:19:18;;;;;;;8.38;1.23;;;15.90;66.40;;;;;;5033515;28;20036;-76
2023/05/17 12:21:45;;;;;;;7.40;1.52;;;16.40;63.20;;;;;;5016859;28;20036;-78
2023/05/17 12:24:11;;;;;;;8.15;1.52;;;16.60;62.00;;;;;;5033170;28;20485;-78
2023/05/17 12:26:43;;;;;;;5.57;1.63;;;16.90;62.80;;;;;;5032114;28;20052;-78
2023/05/17 12:29:09;;;;;;;8.30;1.80;;;17.10;62.20;;;;;;5015481;28;20037;-78
2023/05/17 12:31:41;;;;;;;6.93;1.90;;;16.60;61.00;;;;;;5050027;28;20049;-78
2023/05/17 12:34:08;;;;;;;8.38;1.98;;;16.10;64.40;;;;;;5032883;28;20047;-77
2023/05/17 12:36:36;;;;;;;6.22;1.45;;;15.80;64.30;;;;;;5032723;28;20044;-78
2023/05/17 12:39:04;;;;;;;9.25;1.50;;;15.50;66.40;;;;;;5066938;28;20086;-79
2023/05/17 12:41:31;;;;;;;9.45;1.65;;;15.50;67.00;;;;;;5050004;28;20037;-78
2023/05/17 12:43:57;;;;;;;5.65;1.00;;;15.30;65.70;;;;;;5064976;28;20053;-78
2023/05/17 12:46:23;;;;;;;5.68;1.30;;;15.30;65.90;;;;;;5066977;28;20481;-78
2023/05/17 12:48:50;;;;;;;7.78;1.60;;;15.50;66.60;;;;;;5049816;28;20041;-78